SondeTracker

Meteorological Radiosondes Database

Operations
Statistics for the Launch Site: Oslo (NO)

65

4

31695.00 m / 25818.48 m / 27391.00 m

5.14 m/s / 5.27 m/s

31.26 m/s / 31.66 m/s

0

1

0

Radiosondes Table with Launch Site: Oslo (NO) (65)
Number Type Last Frame [UTC] φ λ Course Speed Altitude Climbing Frequency Nearest City Distance from QTH Status
R2950252 RS41-SGP 2021-05-12 12:35:14 60.5882 10.7758 32 ° 37 km/h 17208 m -31.6 m/s 405.50 MHz 0.00 km UNKNOWN
R2950313 RS41 2021-05-05 12:55:24 60.2336 11.0377 266 ° 43 km/h 6161 m -10.5 m/s 405.50 MHz 0.00 km UNKNOWN
R3020256 RS41 2021-04-28 12:38:24 59.7449 11.7238 89 ° 41 km/h 4465 m -16.0 m/s 405.50 MHz Arvika (SE) 0.00 km UNKNOWN
R2950228 RS41 2021-04-21 13:04:48 59.7557 11.5186 106 ° 46 km/h 11606 m -29.3 m/s 405.50 MHz Arvika (SE) 0.00 km UNKNOWN
R2950251 RS41 2021-04-14 12:30:15 59.5824 11.1779 199 ° 37 km/h 4078 m -18.1 m/s 405.50 MHz Nordby (DK) 0.00 km UNKNOWN
R2950226 RS41 2021-04-13 12:43:04 59.8228 11.4779 51 ° 26 km/h 13253 m -27.8 m/s 405.50 MHz Arvika (SE) 0.00 km UNKNOWN
R2950242 RS41 2021-04-07 13:01:23 59.7379 12.2878 127 ° 74 km/h 15682 m -25.4 m/s 405.50 MHz Arvika (SE) 0.00 km UNKNOWN
R2950191 RS41 2021-03-31 12:57:46 59.8559 12.4375 186 ° 13 km/h 22258 m -67.3 m/s 405.50 MHz Arvika (SE) 0.00 km UNKNOWN
R2950227 RS41 2021-03-10 13:04:48 59.5753 12.1822 131 ° 98 km/h 17763 m -12.5 m/s 405.50 MHz Arvika (SE) 0.00 km UNKNOWN
P2221262 RS41-SGP 2021-02-17 13:01:14 60.3735 11.3718 52 ° 67 km/h 19731 m -21.3 m/s 405.50 MHz 0.00 km UNKNOWN
R2950225 RS41 2021-02-03 12:18:56 59.8838 11.6461 100 ° 41 km/h 12601 m -35.5 m/s 405.50 MHz Arvika (SE) 0.00 km UNKNOWN
P2221271 RS41 2021-01-27 13:37:30 59.3464 11.3143 118 ° 52 km/h 9097 m -21.1 m/s 405.50 MHz Nordby (DK) 0.00 km UNKNOWN
P2221272 RS41 2021-01-22 17:50:24 60.001 10.7542 40 ° 39 km/h 11388 m -23.6 m/s 405.50 MHz 0.00 km UNKNOWN
P2221263 RS41 2021-01-06 13:04:32 60.1894 11.3991 25 ° 35 km/h 5904 m -20.4 m/s 405.50 MHz Arvika (SE) 0.00 km UNKNOWN
P2221270 RS41 2020-12-23 12:47:00 59.8823 12.9249 118 ° 37 km/h 2593 m -14.7 m/s 405.50 MHz Arvika (SE) 0.00 km UNKNOWN
P2221269 RS41 2020-12-02 12:13:00 60.3061 11.2299 11 ° 44 km/h 5829 m -19.0 m/s 405.50 MHz 0.00 km UNKNOWN
P2221264 RS41 2020-11-30 14:07:00 59.9666 12.241 74 ° 24 km/h 3715 m -14.3 m/s 405.501 MHz Arvika (SE) 0.00 km UNKNOWN
P2221266 RS41 2020-11-04 12:58:22 59.6202 12.0469 71 ° 63 km/h 22380 m -61.7 m/s 405.50 MHz Arvika (SE) 0.00 km UNKNOWN
P2221257 RS41 2020-09-23 13:10:00 60.5899 11.7641 33 ° 80 km/h 5734 m -10.4 m/s 405.501 MHz 0.00 km UNKNOWN
P2221256 RS41 2020-09-11 12:22:53 60.0443 12.4807 52 ° 52 km/h 3360 m -18.1 m/s 405.500 MHz Arvika (SE) 0.00 km UNKNOWN
P2640417 RS41 2020-09-11 08:32:35 59.7722 12.1157 71 ° 11 km/h 25646 m -54.4 m/s 405.501 MHz Arvika (SE) 0.00 km UNKNOWN
P2640418 RS41 2020-08-19 13:15:30 60.2039 10.815 25 ° 31 km/h 4496 m -18.3 m/s 405.50 MHz 0.00 km UNKNOWN
P2630022 RS41 2020-07-29 12:28:59 59.9682 10.7162 316 ° 4 km/h 307 m -2.4 m/s 405.50 MHz 0.00 km UNKNOWN
P2640436 RS41 2020-07-08 11:24:44 59.8102 10.9739 141 ° 35 km/h 5681 m -11.9 m/s 405.501 MHz Nordby (DK) 0.00 km UNKNOWN
P2640419 RS41 2020-07-01 13:13:48 60.1682 11.6164 67 ° 57 km/h 5138 m -14.0 m/s 405.50 MHz Arvika (SE) 0.00 km UNKNOWN
P2640410 RS41 2020-06-24 13:10:45 60.1746 11.2099 356 ° 19 km/h 971 m -7.0 m/s 405.50 MHz Arvika (SE) 0.00 km UNKNOWN
P2640435 RS41 2020-06-10 12:59:19 60.4373 10.9122 348 ° 26 km/h 1338 m -6.5 m/s 405.50 MHz 0.00 km UNKNOWN
P2221116 RS41 2020-05-27 13:19:58 60.0211 11.8516 124 ° 44 km/h 4466 m -14.7 m/s 405.80 MHz Arvika (SE) 0.00 km UNKNOWN
P2221177 RS41 2020-05-20 12:07:37 59.278 11.6235 146 ° 115 km/h 7091 m -9.9 m/s 405.80 MHz Nordby (DK) 0.00 km UNKNOWN
P2640414 RS41 2020-05-18 09:28:38 59.6284 12.1402 113 ° 65 km/h 4832 m -11.2 m/s 405.80 MHz Arvika (SE) 0.00 km UNKNOWN
P2640437 RS41 2020-05-13 13:03:40 59.6416 11.5456 151 ° 56 km/h 5872 m -10.0 m/s 405.50 MHz Arvika (SE) 0.00 km UNKNOWN
P2640424 RS41 2020-04-15 13:03:53 58.9939 13.7185 83 ° 48 km/h 928 m -7.9 m/s 405.80 MHz Mariestad (SE) 0.00 km UNKNOWN
P2640412 RS41 2020-03-11 13:05:21 59.9908 13.1973 127 ° 46 km/h 2353 m -18.1 m/s 405.80 MHz Hagfors (SE) 0.00 km UNKNOWN
P2640413 RS41 2020-03-04 13:55:35 60.0777 11.911 153 ° 2 km/h 4291 m -16.2 m/s 405.50 MHz Arvika (SE) 0.00 km UNKNOWN
P2640426 RS41 2020-02-19 12:58:18 59.3408 12.8893 161 ° 26 km/h 2081 m -17.0 m/s 405.800 MHz Säffle (SE) 0.00 km UNKNOWN
P2640428 RS41 2020-02-05 12:56:57 58.672 12.815 115 ° 56 km/h 2061 m -6.1 m/s 405.800 MHz Lidköping (SE) 0.00 km UNKNOWN
P2640411 RS41 2020-01-23 12:43:35 59.536 14.3789 81 ° 72 km/h 976 m -18.5 m/s 405.800 MHz Filipstad (SE) 0.00 km UNKNOWN
P2640438 RS41 2020-01-22 13:07:55 58.242 12.7876 186 ° 48 km/h 1149 m -10.8 m/s 405.800 MHz Trollhättan (SE) 0.00 km UNKNOWN
P2221178 RS41 2020-01-15 12:02:37 60.8602 15.9898 76 ° 96 km/h 2905 m -15.5 m/s 405.801 MHz Falun (SE) 0.00 km UNKNOWN
N3320211 RS41 2019-12-11 13:20:13 61.2558 13.769 50 ° 87 km/h 4261 m -8.8 m/s 405.800 MHz 0.00 km UNKNOWN
N3340210 RS41 2019-11-27 13:36:36 59.9908 12.383 56 ° 31 km/h 2981 m -23.6 m/s 405.80 MHz Arvika (SE) 0.00 km UNKNOWN
N3340213 RS41 2019-11-20 13:48:18 60.2762 11.9243 359 ° 24 km/h 4039 m -20.9 m/s 405.801 MHz Arvika (SE) 0.00 km UNKNOWN
N3340211 RS41 2019-11-15 11:14:00 60.322 12.4813 35 ° 28 km/h 3229 m -21.6 m/s 405.801 MHz Hagfors (SE) 0.00 km UNKNOWN
N3340086 RS41 2019-11-13 13:46:50 60.6722 12.2691 10 ° 37 km/h 4443 m -20.6 m/s 405.801 MHz 0.00 km UNKNOWN
N3340204 RS41 2019-11-01 10:23:40 59.637 12.421 36 ° 22 km/h 2330 m -19.6 m/s 405.800 MHz Arvika (SE) 0.00 km UNKNOWN
N3340085 RS41 2019-10-30 13:12:41 59.2231 12.3714 110 ° 43 km/h 2369 m -17.8 m/s 405.801 MHz Amal (SE) 0.00 km UNKNOWN
N3340087 RS41 2019-10-23 10:10:20 60.1159 12.5206 73 ° 52 km/h 2651 m -19.5 m/s 405.800 MHz Arvika (SE) 0.00 km UNKNOWN
N3340360 RS41 2019-10-04 12:38:18 59.5756 11.1953 150 ° 52 km/h 11438 m -33.3 m/s 405.80 MHz Nordby (DK) 0.00 km UNKNOWN
N3340257 RS41 2019-08-14 12:34:57 60.0626 10.9937 66 ° 24 km/h 12001 m -30.6 m/s 405.80 MHz 0.00 km UNKNOWN
N3340090 RS41 2019-08-08 10:49:06 60.0952 10.9001 66 ° 22 km/h 14739 m -39.4 m/s 405.80 MHz 0.00 km UNKNOWN
N3340207 RS41 2019-08-07 12:47:59 60.103 11.1641 72 ° 35 km/h 13422 m -22.5 m/s 405.80 MHz Arvika (SE) 0.00 km UNKNOWN
N3340205 RS41 2019-07-31 12:40:44 60.0088 10.7691 9 ° 22 km/h 11234 m -14.7 m/s 405.80 MHz 0.00 km UNKNOWN
N3340088 RS41 2019-07-24 13:33:42 60.0753 10.8553 70 ° 30 km/h 10488 m -29.8 m/s 405.80 MHz 0.00 km LOST
N3340344 RS41 2019-07-23 13:31:16 59.8188 11.4536 92 ° 85 km/h 11464 m -23.4 m/s 405.80 MHz Arvika (SE) 0.00 km UNKNOWN
N3340206 RS41 2019-07-22 12:47:02 59.7603 11.4933 90 ° 28 km/h 15789 m -21.5 m/s 405.80 MHz Arvika (SE) 0.00 km UNKNOWN
N3340346 RS41 2019-07-15 13:03:09 58.4892 12.5455 152 ° 78 km/h 4568 m -3.6 m/s 405.80 MHz Vänersborg (SE) 0.00 km UNKNOWN
N3340348 RS41 2019-06-26 12:44:53 59.8443 11.5714 100 ° 37 km/h 13924 m -41.5 m/s 405.80 MHz Arvika (SE) 0.00 km UNKNOWN
N3340214 RS41 2019-06-19 12:47:11 60.349 11.5692 50 ° 56 km/h 13616 m -36.8 m/s 405.80 MHz Arvika (SE) 0.00 km UNKNOWN
N3340331 RS41 2019-06-13 13:27:33 60.6467 9.91907 307 ° 17 km/h 20803 m -19.3 m/s 405.50 MHz 0.00 km UNKNOWN
N3340200 RS41 2019-05-24 12:46:49 59.6993 10.6461 99 ° 35 km/h 11634 m -32.1 m/s 405.80 MHz Nordby (DK) 0.00 km UNKNOWN
N3340216 RS41 2019-04-25 15:01:39 60.1483 10.9321 339 ° 33 km/h 11061 m -29.9 m/s 405.50 MHz 0.00 km UNKNOWN
N3340202 RS41 2019-04-25 12:58:15 60.1358 10.891 39 ° 17 km/h 14706 m -34.2 m/s 405.50 MHz 0.00 km UNKNOWN
N3340201 RS41 2019-02-22 12:05:06 59.049 11.8734 144 ° 69 km/h 7742 m -26.2 m/s 405.80 MHz Nordby (DK) 0.00 km UNKNOWN
N3340203 RS41 2019-02-21 14:43:46 58.4935 12.1478 158 ° 87 km/h 4974 m -18.4 m/s 405.80 MHz Vänersborg (SE) 0.00 km UNKNOWN
N3340150 RS41 2018-10-30 13:08:46 60.5916 11.2926 35 ° 54 km/h 15956 m -30.8 m/s 405.80 MHz 0.00 km UNKNOWN